<?xml version="1.0" encoding="UTF-8"?>
<gpx creator="Wikiloc - https://www.wikiloc.com" version="1.1" xmlns="http://www.topografix.com/GPX/1/1" xmlns:xsi="http://www.w3.org/2001/XMLSchema-instance" xsi:schemaLocation="http://www.topografix.com/GPX/1/1 http://www.topografix.com/GPX/1/1/gpx.xsd">
  <metadata>
    <name>Wikiloc - Aldea de Rubriellos</name>
    <author>
      <name>Águeda</name>
      <link href="https://www.wikiloc.com/wikiloc/user.do?id=129065">
        <text>Águeda on Wikiloc</text>
      </link>
    </author>
    <link href="https://www.wikiloc.com/hiking-trails/aldea-de-rubriellos-93740863">
      <text>Aldea de Rubriellos on Wikiloc</text>
    </link>
    <time>2022-01-27T11:07:00Z</time>
  </metadata>
  <wpt lat="43.209752" lon="-5.090700">
    <ele>282.8</ele>
    <time>2022-01-27T11:07:00Z</time>
    <name>Puente Vidosa</name>
    <cmt></cmt>
    <desc></desc>
  </wpt>
  <wpt lat="43.209533" lon="-5.088436">
    <ele>375.8</ele>
    <time>2022-01-27T11:07:00Z</time>
    <name>A. Cascada de Aguasalio</name>
    <cmt></cmt>
    <desc></desc>
  </wpt>
  <wpt lat="43.206135" lon="-5.086704">
    <ele>513.1</ele>
    <time>2022-01-27T11:07:00Z</time>
    <name>B. Rubriellos</name>
    <cmt></cmt>
    <desc></desc>
  </wpt>
  <trk>
    <name>Aldea de Rubriellos</name>
    <cmt></cmt>
    <desc></desc>
    <trkseg>
      <trkpt lat="43.209622" lon="-5.090479">
        <ele>283.725</ele>
        <time>2022-01-27T11:09:54Z</time>
      </trkpt>
      <trkpt lat="43.209581" lon="-5.090422">
        <ele>282.926</ele>
        <time>2022-01-27T11:10:34Z</time>
      </trkpt>
      <trkpt lat="43.209556" lon="-5.090367">
        <ele>283.408</ele>
        <time>2022-01-27T11:11:14Z</time>
      </trkpt>
      <trkpt lat="43.209538" lon="-5.090282">
        <ele>285.908</ele>
        <time>2022-01-27T11:11:54Z</time>
      </trkpt>
      <trkpt lat="43.209551" lon="-5.090183">
        <ele>289.641</ele>
        <time>2022-01-27T11:12:34Z</time>
      </trkpt>
      <trkpt lat="43.209533" lon="-5.090078">
        <ele>291.565</ele>
        <time>2022-01-27T11:13:14Z</time>
      </trkpt>
      <trkpt lat="43.209496" lon="-5.089953">
        <ele>293.399</ele>
        <time>2022-01-27T11:13:54Z</time>
      </trkpt>
      <trkpt lat="43.209453" lon="-5.089817">
        <ele>295.436</ele>
        <time>2022-01-27T11:14:34Z</time>
      </trkpt>
      <trkpt lat="43.209411" lon="-5.089651">
        <ele>301.482</ele>
        <time>2022-01-27T11:15:14Z</time>
      </trkpt>
      <trkpt lat="43.209422" lon="-5.089626">
        <ele>301.570</ele>
        <time>2022-01-27T11:15:54Z</time>
      </trkpt>
      <trkpt lat="43.209487" lon="-5.089714">
        <ele>300.538</ele>
        <time>2022-01-27T11:16:34Z</time>
      </trkpt>
      <trkpt lat="43.209515" lon="-5.089761">
        <ele>300.695</ele>
        <time>2022-01-27T11:17:14Z</time>
      </trkpt>
      <trkpt lat="43.209604" lon="-5.089816">
        <ele>303.651</ele>
        <time>2022-01-27T11:17:54Z</time>
      </trkpt>
      <trkpt lat="43.209653" lon="-5.089832">
        <ele>305.701</ele>
        <time>2022-01-27T11:18:34Z</time>
      </trkpt>
      <trkpt lat="43.209659" lon="-5.089791">
        <ele>307.411</ele>
        <time>2022-01-27T11:19:14Z</time>
      </trkpt>
      <trkpt lat="43.209604" lon="-5.089665">
        <ele>308.608</ele>
        <time>2022-01-27T11:19:54Z</time>
      </trkpt>
      <trkpt lat="43.209605" lon="-5.089619">
        <ele>310.324</ele>
        <time>2022-01-27T11:20:34Z</time>
      </trkpt>
      <trkpt lat="43.209630" lon="-5.089638">
        <ele>311.228</ele>
        <time>2022-01-27T11:21:14Z</time>
      </trkpt>
      <trkpt lat="43.209670" lon="-5.089667">
        <ele>312.472</ele>
        <time>2022-01-27T11:21:54Z</time>
      </trkpt>
      <trkpt lat="43.209680" lon="-5.089654">
        <ele>313.599</ele>
        <time>2022-01-27T11:22:34Z</time>
      </trkpt>
      <trkpt lat="43.209667" lon="-5.089596">
        <ele>315.075</ele>
        <time>2022-01-27T11:23:14Z</time>
      </trkpt>
      <trkpt lat="43.209549" lon="-5.089345">
        <ele>317.633</ele>
        <time>2022-01-27T11:23:54Z</time>
      </trkpt>
      <trkpt lat="43.209532" lon="-5.089261">
        <ele>320.511</ele>
        <time>2022-01-27T11:24:34Z</time>
      </trkpt>
      <trkpt lat="43.209475" lon="-5.089168">
        <ele>320.578</ele>
        <time>2022-01-27T11:25:14Z</time>
      </trkpt>
      <trkpt lat="43.209466" lon="-5.089032">
        <ele>325.556</ele>
        <time>2022-01-27T11:25:54Z</time>
      </trkpt>
      <trkpt lat="43.209454" lon="-5.088932">
        <ele>328.459</ele>
        <time>2022-01-27T11:26:34Z</time>
      </trkpt>
      <trkpt lat="43.209447" lon="-5.088871">
        <ele>330.014</ele>
        <time>2022-01-27T11:27:14Z</time>
      </trkpt>
      <trkpt lat="43.209319" lon="-5.088883">
        <ele>335.608</ele>
        <time>2022-01-27T11:27:54Z</time>
      </trkpt>
      <trkpt lat="43.209312" lon="-5.088976">
        <ele>331.864</ele>
        <time>2022-01-27T11:28:34Z</time>
      </trkpt>
      <trkpt lat="43.209283" lon="-5.089045">
        <ele>330.078</ele>
        <time>2022-01-27T11:29:14Z</time>
      </trkpt>
      <trkpt lat="43.209235" lon="-5.089125">
        <ele>328.392</ele>
        <time>2022-01-27T11:29:54Z</time>
      </trkpt>
      <trkpt lat="43.209203" lon="-5.089156">
        <ele>328.129</ele>
        <time>2022-01-27T11:30:34Z</time>
      </trkpt>
      <trkpt lat="43.209141" lon="-5.089173">
        <ele>331.195</ele>
        <time>2022-01-27T11:31:14Z</time>
      </trkpt>
      <trkpt lat="43.209095" lon="-5.089199">
        <ele>334.563</ele>
        <time>2022-01-27T11:31:54Z</time>
      </trkpt>
      <trkpt lat="43.209058" lon="-5.089229">
        <ele>337.151</ele>
        <time>2022-01-27T11:32:34Z</time>
      </trkpt>
      <trkpt lat="43.209017" lon="-5.089376">
        <ele>337.488</ele>
        <time>2022-01-27T11:33:14Z</time>
      </trkpt>
      <trkpt lat="43.208995" lon="-5.089418">
        <ele>338.873</ele>
        <time>2022-01-27T11:33:54Z</time>
      </trkpt>
      <trkpt lat="43.208921" lon="-5.089472">
        <ele>345.385</ele>
        <time>2022-01-27T11:34:34Z</time>
      </trkpt>
      <trkpt lat="43.208923" lon="-5.089536">
        <ele>342.413</ele>
        <time>2022-01-27T11:35:14Z</time>
      </trkpt>
      <trkpt lat="43.208872" lon="-5.089597">
        <ele>344.408</ele>
        <time>2022-01-27T11:35:54Z</time>
      </trkpt>
      <trkpt lat="43.208830" lon="-5.089636">
        <ele>344.876</ele>
        <time>2022-01-27T11:36:34Z</time>
      </trkpt>
      <trkpt lat="43.208808" lon="-5.089612">
        <ele>347.220</ele>
        <time>2022-01-27T11:37:14Z</time>
      </trkpt>
      <trkpt lat="43.208777" lon="-5.089588">
        <ele>350.274</ele>
        <time>2022-01-27T11:37:54Z</time>
      </trkpt>
      <trkpt lat="43.208710" lon="-5.089666">
        <ele>349.221</ele>
        <time>2022-01-27T11:38:34Z</time>
      </trkpt>
      <trkpt lat="43.208689" lon="-5.089623">
        <ele>353.017</ele>
        <time>2022-01-27T11:39:14Z</time>
      </trkpt>
      <trkpt lat="43.208672" lon="-5.089431">
        <ele>366.025</ele>
        <time>2022-01-27T11:39:54Z</time>
      </trkpt>
      <trkpt lat="43.208692" lon="-5.089379">
        <ele>365.873</ele>
        <time>2022-01-27T11:40:34Z</time>
      </trkpt>
      <trkpt lat="43.208657" lon="-5.089312">
        <ele>370.290</ele>
        <time>2022-01-27T11:41:14Z</time>
      </trkpt>
      <trkpt lat="43.208602" lon="-5.089238">
        <ele>376.125</ele>
        <time>2022-01-27T11:41:54Z</time>
      </trkpt>
      <trkpt lat="43.208569" lon="-5.089151">
        <ele>379.526</ele>
        <time>2022-01-27T11:42:34Z</time>
      </trkpt>
      <trkpt lat="43.208560" lon="-5.089143">
        <ele>380.008</ele>
        <time>2022-01-27T11:43:14Z</time>
      </trkpt>
      <trkpt lat="43.208526" lon="-5.089094">
        <ele>382.208</ele>
        <time>2022-01-27T11:43:54Z</time>
      </trkpt>
      <trkpt lat="43.208524" lon="-5.089031">
        <ele>383.871</ele>
        <time>2022-01-27T11:44:34Z</time>
      </trkpt>
      <trkpt lat="43.208427" lon="-5.088958">
        <ele>390.875</ele>
        <time>2022-01-27T11:45:14Z</time>
      </trkpt>
      <trkpt lat="43.208352" lon="-5.088938">
        <ele>395.799</ele>
        <time>2022-01-27T11:45:54Z</time>
      </trkpt>
      <trkpt lat="43.208292" lon="-5.088973">
        <ele>396.386</ele>
        <time>2022-01-27T11:46:34Z</time>
      </trkpt>
      <trkpt lat="43.208144" lon="-5.089046">
        <ele>397.592</ele>
        <time>2022-01-27T11:47:14Z</time>
      </trkpt>
      <trkpt lat="43.208037" lon="-5.089054">
        <ele>400.890</ele>
        <time>2022-01-27T11:47:54Z</time>
      </trkpt>
      <trkpt lat="43.207955" lon="-5.089126">
        <ele>402.068</ele>
        <time>2022-01-27T11:48:34Z</time>
      </trkpt>
      <trkpt lat="43.207884" lon="-5.089146">
        <ele>405.085</ele>
        <time>2022-01-27T11:49:14Z</time>
      </trkpt>
      <trkpt lat="43.207869" lon="-5.089108">
        <ele>407.024</ele>
        <time>2022-01-27T11:49:54Z</time>
      </trkpt>
      <trkpt lat="43.207860" lon="-5.089084">
        <ele>408.304</ele>
        <time>2022-01-27T11:50:34Z</time>
      </trkpt>
      <trkpt lat="43.207810" lon="-5.089117">
        <ele>409.814</ele>
        <time>2022-01-27T11:51:14Z</time>
      </trkpt>
      <trkpt lat="43.207768" lon="-5.089141">
        <ele>411.208</ele>
        <time>2022-01-27T11:51:54Z</time>
      </trkpt>
      <trkpt lat="43.207736" lon="-5.089158">
        <ele>412.191</ele>
        <time>2022-01-27T11:52:34Z</time>
      </trkpt>
      <trkpt lat="43.207674" lon="-5.089181">
        <ele>413.995</ele>
        <time>2022-01-27T11:53:14Z</time>
      </trkpt>
      <trkpt lat="43.207660" lon="-5.089192">
        <ele>414.079</ele>
        <time>2022-01-27T11:53:54Z</time>
      </trkpt>
      <trkpt lat="43.207617" lon="-5.089186">
        <ele>416.156</ele>
        <time>2022-01-27T11:54:34Z</time>
      </trkpt>
      <trkpt lat="43.207621" lon="-5.089115">
        <ele>418.342</ele>
        <time>2022-01-27T11:55:14Z</time>
      </trkpt>
      <trkpt lat="43.207592" lon="-5.089130">
        <ele>419.140</ele>
        <time>2022-01-27T11:55:54Z</time>
      </trkpt>
      <trkpt lat="43.207555" lon="-5.089159">
        <ele>419.898</ele>
        <time>2022-01-27T11:56:34Z</time>
      </trkpt>
      <trkpt lat="43.207528" lon="-5.089169">
        <ele>420.795</ele>
        <time>2022-01-27T11:57:14Z</time>
      </trkpt>
      <trkpt lat="43.207489" lon="-5.089139">
        <ele>422.739</ele>
        <time>2022-01-27T11:57:54Z</time>
      </trkpt>
      <trkpt lat="43.207433" lon="-5.089112">
        <ele>423.201</ele>
        <time>2022-01-27T11:58:34Z</time>
      </trkpt>
      <trkpt lat="43.207407" lon="-5.089095">
        <ele>423.821</ele>
        <time>2022-01-27T11:59:14Z</time>
      </trkpt>
      <trkpt lat="43.207360" lon="-5.089069">
        <ele>424.708</ele>
        <time>2022-01-27T11:59:54Z</time>
      </trkpt>
      <trkpt lat="43.207320" lon="-5.089034">
        <ele>426.472</ele>
        <time>2022-01-27T12:00:34Z</time>
      </trkpt>
      <trkpt lat="43.207327" lon="-5.088992">
        <ele>428.386</ele>
        <time>2022-01-27T12:01:14Z</time>
      </trkpt>
      <trkpt lat="43.207275" lon="-5.088986">
        <ele>429.040</ele>
        <time>2022-01-27T12:01:54Z</time>
      </trkpt>
      <trkpt lat="43.207255" lon="-5.088985">
        <ele>429.257</ele>
        <time>2022-01-27T12:02:34Z</time>
      </trkpt>
      <trkpt lat="43.207252" lon="-5.088890">
        <ele>434.483</ele>
        <time>2022-01-27T12:03:14Z</time>
      </trkpt>
      <trkpt lat="43.207206" lon="-5.088814">
        <ele>437.761</ele>
        <time>2022-01-27T12:03:54Z</time>
      </trkpt>
      <trkpt lat="43.207159" lon="-5.088761">
        <ele>439.439</ele>
        <time>2022-01-27T12:04:34Z</time>
      </trkpt>
      <trkpt lat="43.207136" lon="-5.088756">
        <ele>439.476</ele>
        <time>2022-01-27T12:05:14Z</time>
      </trkpt>
      <trkpt lat="43.207153" lon="-5.088696">
        <ele>442.536</ele>
        <time>2022-01-27T12:05:54Z</time>
      </trkpt>
      <trkpt lat="43.207101" lon="-5.088652">
        <ele>444.717</ele>
        <time>2022-01-27T12:06:34Z</time>
      </trkpt>
      <trkpt lat="43.207042" lon="-5.088575">
        <ele>448.718</ele>
        <time>2022-01-27T12:07:14Z</time>
      </trkpt>
      <trkpt lat="43.207018" lon="-5.088473">
        <ele>452.908</ele>
        <time>2022-01-27T12:07:54Z</time>
      </trkpt>
      <trkpt lat="43.206973" lon="-5.088436">
        <ele>455.192</ele>
        <time>2022-01-27T12:08:34Z</time>
      </trkpt>
      <trkpt lat="43.206919" lon="-5.088407">
        <ele>454.926</ele>
        <time>2022-01-27T12:09:14Z</time>
      </trkpt>
      <trkpt lat="43.206884" lon="-5.088387">
        <ele>453.370</ele>
        <time>2022-01-27T12:09:54Z</time>
      </trkpt>
      <trkpt lat="43.206852" lon="-5.088279">
        <ele>456.217</ele>
        <time>2022-01-27T12:10:34Z</time>
      </trkpt>
      <trkpt lat="43.206849" lon="-5.088148">
        <ele>461.423</ele>
        <time>2022-01-27T12:11:14Z</time>
      </trkpt>
      <trkpt lat="43.206794" lon="-5.088058">
        <ele>463.581</ele>
        <time>2022-01-27T12:11:54Z</time>
      </trkpt>
      <trkpt lat="43.206778" lon="-5.087965">
        <ele>467.699</ele>
        <time>2022-01-27T12:12:34Z</time>
      </trkpt>
      <trkpt lat="43.206829" lon="-5.087872">
        <ele>473.066</ele>
        <time>2022-01-27T12:13:14Z</time>
      </trkpt>
      <trkpt lat="43.206876" lon="-5.087833">
        <ele>475.652</ele>
        <time>2022-01-27T12:13:54Z</time>
      </trkpt>
      <trkpt lat="43.206911" lon="-5.087752">
        <ele>479.753</ele>
        <time>2022-01-27T12:14:34Z</time>
      </trkpt>
      <trkpt lat="43.206934" lon="-5.087751">
        <ele>480.108</ele>
        <time>2022-01-27T12:15:14Z</time>
      </trkpt>
      <trkpt lat="43.206962" lon="-5.087734">
        <ele>480.808</ele>
        <time>2022-01-27T12:15:54Z</time>
      </trkpt>
      <trkpt lat="43.206929" lon="-5.087674">
        <ele>483.664</ele>
        <time>2022-01-27T12:16:34Z</time>
      </trkpt>
      <trkpt lat="43.206806" lon="-5.087519">
        <ele>488.778</ele>
        <time>2022-01-27T12:17:14Z</time>
      </trkpt>
      <trkpt lat="43.206749" lon="-5.087377">
        <ele>494.942</ele>
        <time>2022-01-27T12:17:54Z</time>
      </trkpt>
      <trkpt lat="43.206673" lon="-5.087315">
        <ele>497.139</ele>
        <time>2022-01-27T12:18:34Z</time>
      </trkpt>
      <trkpt lat="43.206650" lon="-5.087247">
        <ele>500.535</ele>
        <time>2022-01-27T12:19:14Z</time>
      </trkpt>
      <trkpt lat="43.206629" lon="-5.087236">
        <ele>500.953</ele>
        <time>2022-01-27T12:19:54Z</time>
      </trkpt>
      <trkpt lat="43.206541" lon="-5.087246">
        <ele>499.421</ele>
        <time>2022-01-27T12:20:34Z</time>
      </trkpt>
      <trkpt lat="43.206484" lon="-5.087269">
        <ele>497.618</ele>
        <time>2022-01-27T12:21:14Z</time>
      </trkpt>
      <trkpt lat="43.206401" lon="-5.087209">
        <ele>499.835</ele>
        <time>2022-01-27T12:21:54Z</time>
      </trkpt>
      <trkpt lat="43.206329" lon="-5.087182">
        <ele>500.586</ele>
        <time>2022-01-27T12:22:34Z</time>
      </trkpt>
      <trkpt lat="43.206298" lon="-5.087128">
        <ele>502.614</ele>
        <time>2022-01-27T12:23:14Z</time>
      </trkpt>
      <trkpt lat="43.206252" lon="-5.087115">
        <ele>502.808</ele>
        <time>2022-01-27T12:23:54Z</time>
      </trkpt>
      <trkpt lat="43.206196" lon="-5.087090">
        <ele>503.292</ele>
        <time>2022-01-27T12:24:34Z</time>
      </trkpt>
      <trkpt lat="43.206186" lon="-5.086989">
        <ele>506.756</ele>
        <time>2022-01-27T12:25:14Z</time>
      </trkpt>
      <trkpt lat="43.206157" lon="-5.086842">
        <ele>510.510</ele>
        <time>2022-01-27T12:25:54Z</time>
      </trkpt>
      <trkpt lat="43.206146" lon="-5.086741">
        <ele>512.717</ele>
        <time>2022-01-27T12:26:34Z</time>
      </trkpt>
      <trkpt lat="43.206154" lon="-5.086774">
        <ele>512.173</ele>
        <time>2022-01-27T12:27:14Z</time>
      </trkpt>
      <trkpt lat="43.206170" lon="-5.086886">
        <ele>509.631</ele>
        <time>2022-01-27T12:27:54Z</time>
      </trkpt>
      <trkpt lat="43.206192" lon="-5.086959">
        <ele>507.929</ele>
        <time>2022-01-27T12:28:34Z</time>
      </trkpt>
      <trkpt lat="43.206179" lon="-5.087040">
        <ele>504.816</ele>
        <time>2022-01-27T12:29:14Z</time>
      </trkpt>
      <trkpt lat="43.206222" lon="-5.087098">
        <ele>503.152</ele>
        <time>2022-01-27T12:29:54Z</time>
      </trkpt>
      <trkpt lat="43.206271" lon="-5.087119">
        <ele>502.853</ele>
        <time>2022-01-27T12:30:34Z</time>
      </trkpt>
      <trkpt lat="43.206318" lon="-5.087147">
        <ele>502.008</ele>
        <time>2022-01-27T12:31:14Z</time>
      </trkpt>
      <trkpt lat="43.206347" lon="-5.087186">
        <ele>500.508</ele>
        <time>2022-01-27T12:31:54Z</time>
      </trkpt>
      <trkpt lat="43.206430" lon="-5.087231">
        <ele>499.064</ele>
        <time>2022-01-27T12:32:34Z</time>
      </trkpt>
      <trkpt lat="43.206510" lon="-5.087280">
        <ele>497.338</ele>
        <time>2022-01-27T12:33:14Z</time>
      </trkpt>
      <trkpt lat="43.206566" lon="-5.087241">
        <ele>499.992</ele>
        <time>2022-01-27T12:33:54Z</time>
      </trkpt>
      <trkpt lat="43.206639" lon="-5.087225">
        <ele>501.689</ele>
        <time>2022-01-27T12:34:34Z</time>
      </trkpt>
      <trkpt lat="43.206659" lon="-5.087294">
        <ele>498.015</ele>
        <time>2022-01-27T12:35:14Z</time>
      </trkpt>
      <trkpt lat="43.206693" lon="-5.087331">
        <ele>496.563</ele>
        <time>2022-01-27T12:35:54Z</time>
      </trkpt>
      <trkpt lat="43.206762" lon="-5.087396">
        <ele>494.171</ele>
        <time>2022-01-27T12:36:34Z</time>
      </trkpt>
      <trkpt lat="43.206820" lon="-5.087535">
        <ele>488.218</ele>
        <time>2022-01-27T12:37:14Z</time>
      </trkpt>
      <trkpt lat="43.206901" lon="-5.087647">
        <ele>484.411</ele>
        <time>2022-01-27T12:37:54Z</time>
      </trkpt>
      <trkpt lat="43.206950" lon="-5.087704">
        <ele>482.421</ele>
        <time>2022-01-27T12:38:34Z</time>
      </trkpt>
      <trkpt lat="43.206963" lon="-5.087744">
        <ele>480.303</ele>
        <time>2022-01-27T12:39:14Z</time>
      </trkpt>
      <trkpt lat="43.206923" lon="-5.087752">
        <ele>479.908</ele>
        <time>2022-01-27T12:39:54Z</time>
      </trkpt>
      <trkpt lat="43.206905" lon="-5.087766">
        <ele>479.070</ele>
        <time>2022-01-27T12:40:34Z</time>
      </trkpt>
      <trkpt lat="43.206883" lon="-5.087820">
        <ele>476.364</ele>
        <time>2022-01-27T12:41:14Z</time>
      </trkpt>
      <trkpt lat="43.206862" lon="-5.087846">
        <ele>474.858</ele>
        <time>2022-01-27T12:41:54Z</time>
      </trkpt>
      <trkpt lat="43.206819" lon="-5.087879">
        <ele>472.525</ele>
        <time>2022-01-27T12:42:34Z</time>
      </trkpt>
      <trkpt lat="43.206779" lon="-5.087949">
        <ele>468.441</ele>
        <time>2022-01-27T12:43:14Z</time>
      </trkpt>
      <trkpt lat="43.206791" lon="-5.088041">
        <ele>464.339</ele>
        <time>2022-01-27T12:43:54Z</time>
      </trkpt>
      <trkpt lat="43.206808" lon="-5.088074">
        <ele>463.297</ele>
        <time>2022-01-27T12:44:34Z</time>
      </trkpt>
      <trkpt lat="43.206849" lon="-5.088130">
        <ele>462.244</ele>
        <time>2022-01-27T12:45:14Z</time>
      </trkpt>
      <trkpt lat="43.206849" lon="-5.088172">
        <ele>460.565</ele>
        <time>2022-01-27T12:45:54Z</time>
      </trkpt>
      <trkpt lat="43.206851" lon="-5.088261">
        <ele>456.968</ele>
        <time>2022-01-27T12:46:34Z</time>
      </trkpt>
      <trkpt lat="43.206863" lon="-5.088314">
        <ele>455.514</ele>
        <time>2022-01-27T12:47:14Z</time>
      </trkpt>
      <trkpt lat="43.206877" lon="-5.088371">
        <ele>453.608</ele>
        <time>2022-01-27T12:47:54Z</time>
      </trkpt>
      <trkpt lat="43.206903" lon="-5.088402">
        <ele>453.975</ele>
        <time>2022-01-27T12:48:34Z</time>
      </trkpt>
      <trkpt lat="43.206943" lon="-5.088421">
        <ele>456.149</ele>
        <time>2022-01-27T12:49:14Z</time>
      </trkpt>
      <trkpt lat="43.207001" lon="-5.088451">
        <ele>454.033</ele>
        <time>2022-01-27T12:49:54Z</time>
      </trkpt>
      <trkpt lat="43.207023" lon="-5.088501">
        <ele>451.710</ele>
        <time>2022-01-27T12:50:34Z</time>
      </trkpt>
      <trkpt lat="43.207052" lon="-5.088590">
        <ele>448.076</ele>
        <time>2022-01-27T12:51:14Z</time>
      </trkpt>
      <trkpt lat="43.207115" lon="-5.088661">
        <ele>444.214</ele>
        <time>2022-01-27T12:51:54Z</time>
      </trkpt>
      <trkpt lat="43.207144" lon="-5.088686">
        <ele>442.932</ele>
        <time>2022-01-27T12:52:34Z</time>
      </trkpt>
      <trkpt lat="43.207150" lon="-5.088706">
        <ele>442.079</ele>
        <time>2022-01-27T12:53:14Z</time>
      </trkpt>
      <trkpt lat="43.207144" lon="-5.088749">
        <ele>439.817</ele>
        <time>2022-01-27T12:53:54Z</time>
      </trkpt>
      <trkpt lat="43.207174" lon="-5.088784">
        <ele>438.587</ele>
        <time>2022-01-27T12:54:34Z</time>
      </trkpt>
      <trkpt lat="43.207221" lon="-5.088830">
        <ele>437.315</ele>
        <time>2022-01-27T12:55:14Z</time>
      </trkpt>
      <trkpt lat="43.207261" lon="-5.088904">
        <ele>433.508</ele>
        <time>2022-01-27T12:55:54Z</time>
      </trkpt>
      <trkpt lat="43.207251" lon="-5.088994">
        <ele>428.770</ele>
        <time>2022-01-27T12:56:34Z</time>
      </trkpt>
      <trkpt lat="43.207320" lon="-5.088982">
        <ele>428.874</ele>
        <time>2022-01-27T12:57:14Z</time>
      </trkpt>
      <trkpt lat="43.207318" lon="-5.089043">
        <ele>425.928</ele>
        <time>2022-01-27T12:57:54Z</time>
      </trkpt>
      <trkpt lat="43.207380" lon="-5.089072">
        <ele>424.665</ele>
        <time>2022-01-27T12:58:34Z</time>
      </trkpt>
      <trkpt lat="43.207444" lon="-5.089120">
        <ele>423.011</ele>
        <time>2022-01-27T12:59:14Z</time>
      </trkpt>
      <trkpt lat="43.207477" lon="-5.089121">
        <ele>423.289</ele>
        <time>2022-01-27T12:59:54Z</time>
      </trkpt>
      <trkpt lat="43.207509" lon="-5.089154">
        <ele>422.067</ele>
        <time>2022-01-27T13:00:34Z</time>
      </trkpt>
      <trkpt lat="43.207538" lon="-5.089160">
        <ele>420.624</ele>
        <time>2022-01-27T13:01:14Z</time>
      </trkpt>
      <trkpt lat="43.207568" lon="-5.089138">
        <ele>419.976</ele>
        <time>2022-01-27T13:01:54Z</time>
      </trkpt>
      <trkpt lat="43.207622" lon="-5.089101">
        <ele>418.690</ele>
        <time>2022-01-27T13:02:34Z</time>
      </trkpt>
      <trkpt lat="43.207617" lon="-5.089170">
        <ele>416.819</ele>
        <time>2022-01-27T13:03:14Z</time>
      </trkpt>
      <trkpt lat="43.207625" lon="-5.089189">
        <ele>415.708</ele>
        <time>2022-01-27T13:03:54Z</time>
      </trkpt>
      <trkpt lat="43.207667" lon="-5.089185">
        <ele>414.026</ele>
        <time>2022-01-27T13:04:34Z</time>
      </trkpt>
      <trkpt lat="43.207690" lon="-5.089173">
        <ele>413.560</ele>
        <time>2022-01-27T13:05:14Z</time>
      </trkpt>
      <trkpt lat="43.207751" lon="-5.089150">
        <ele>411.694</ele>
        <time>2022-01-27T13:05:54Z</time>
      </trkpt>
      <trkpt lat="43.207783" lon="-5.089136">
        <ele>410.681</ele>
        <time>2022-01-27T13:06:34Z</time>
      </trkpt>
      <trkpt lat="43.207827" lon="-5.089112">
        <ele>409.137</ele>
        <time>2022-01-27T13:07:14Z</time>
      </trkpt>
      <trkpt lat="43.207866" lon="-5.089079">
        <ele>408.285</ele>
        <time>2022-01-27T13:07:54Z</time>
      </trkpt>
      <trkpt lat="43.207880" lon="-5.089136">
        <ele>405.583</ele>
        <time>2022-01-27T13:08:34Z</time>
      </trkpt>
      <trkpt lat="43.207900" lon="-5.089137">
        <ele>404.470</ele>
        <time>2022-01-27T13:09:14Z</time>
      </trkpt>
      <trkpt lat="43.207966" lon="-5.089117">
        <ele>401.888</ele>
        <time>2022-01-27T13:09:54Z</time>
      </trkpt>
      <trkpt lat="43.208028" lon="-5.089060">
        <ele>400.924</ele>
        <time>2022-01-27T13:10:34Z</time>
      </trkpt>
      <trkpt lat="43.208053" lon="-5.089052">
        <ele>400.126</ele>
        <time>2022-01-27T13:11:14Z</time>
      </trkpt>
      <trkpt lat="43.208154" lon="-5.089033">
        <ele>397.808</ele>
        <time>2022-01-27T13:11:54Z</time>
      </trkpt>
      <trkpt lat="43.208268" lon="-5.088982">
        <ele>396.667</ele>
        <time>2022-01-27T13:12:34Z</time>
      </trkpt>
      <trkpt lat="43.208318" lon="-5.088957">
        <ele>396.331</ele>
        <time>2022-01-27T13:13:14Z</time>
      </trkpt>
      <trkpt lat="43.208364" lon="-5.088940">
        <ele>394.985</ele>
        <time>2022-01-27T13:13:54Z</time>
      </trkpt>
      <trkpt lat="43.208447" lon="-5.088968">
        <ele>389.472</ele>
        <time>2022-01-27T13:14:34Z</time>
      </trkpt>
      <trkpt lat="43.208514" lon="-5.089021">
        <ele>384.558</ele>
        <time>2022-01-27T13:15:14Z</time>
      </trkpt>
      <trkpt lat="43.208526" lon="-5.089047">
        <ele>383.416</ele>
        <time>2022-01-27T13:15:54Z</time>
      </trkpt>
      <trkpt lat="43.208530" lon="-5.089109">
        <ele>381.774</ele>
        <time>2022-01-27T13:16:34Z</time>
      </trkpt>
      <trkpt lat="43.208583" lon="-5.089167">
        <ele>378.851</ele>
        <time>2022-01-27T13:17:14Z</time>
      </trkpt>
      <trkpt lat="43.208609" lon="-5.089252">
        <ele>375.654</ele>
        <time>2022-01-27T13:17:54Z</time>
      </trkpt>
      <trkpt lat="43.208673" lon="-5.089330">
        <ele>368.556</ele>
        <time>2022-01-27T13:18:34Z</time>
      </trkpt>
      <trkpt lat="43.208688" lon="-5.089394">
        <ele>365.711</ele>
        <time>2022-01-27T13:19:14Z</time>
      </trkpt>
      <trkpt lat="43.208670" lon="-5.089452">
        <ele>365.308</ele>
        <time>2022-01-27T13:19:54Z</time>
      </trkpt>
      <trkpt lat="43.208679" lon="-5.089607">
        <ele>354.624</ele>
        <time>2022-01-27T13:20:34Z</time>
      </trkpt>
      <trkpt lat="43.208698" lon="-5.089640">
        <ele>351.448</ele>
        <time>2022-01-27T13:21:14Z</time>
      </trkpt>
      <trkpt lat="43.208727" lon="-5.089653">
        <ele>349.142</ele>
        <time>2022-01-27T13:21:54Z</time>
      </trkpt>
      <trkpt lat="43.208788" lon="-5.089602">
        <ele>348.829</ele>
        <time>2022-01-27T13:22:34Z</time>
      </trkpt>
      <trkpt lat="43.208819" lon="-5.089618">
        <ele>346.355</ele>
        <time>2022-01-27T13:23:14Z</time>
      </trkpt>
      <trkpt lat="43.208842" lon="-5.089614">
        <ele>345.283</ele>
        <time>2022-01-27T13:23:54Z</time>
      </trkpt>
      <trkpt lat="43.208900" lon="-5.089567">
        <ele>343.591</ele>
        <time>2022-01-27T13:24:34Z</time>
      </trkpt>
      <trkpt lat="43.208924" lon="-5.089513">
        <ele>343.228</ele>
        <time>2022-01-27T13:25:14Z</time>
      </trkpt>
      <trkpt lat="43.208946" lon="-5.089444">
        <ele>343.691</ele>
        <time>2022-01-27T13:25:54Z</time>
      </trkpt>
      <trkpt lat="43.209012" lon="-5.089403">
        <ele>337.381</ele>
        <time>2022-01-27T13:26:34Z</time>
      </trkpt>
      <trkpt lat="43.209037" lon="-5.089295">
        <ele>337.319</ele>
        <time>2022-01-27T13:27:14Z</time>
      </trkpt>
      <trkpt lat="43.209050" lon="-5.089260">
        <ele>337.008</ele>
        <time>2022-01-27T13:27:54Z</time>
      </trkpt>
      <trkpt lat="43.209077" lon="-5.089215">
        <ele>335.738</ele>
        <time>2022-01-27T13:28:34Z</time>
      </trkpt>
      <trkpt lat="43.209120" lon="-5.089185">
        <ele>332.652</ele>
        <time>2022-01-27T13:29:14Z</time>
      </trkpt>
      <trkpt lat="43.209164" lon="-5.089166">
        <ele>329.336</ele>
        <time>2022-01-27T13:29:54Z</time>
      </trkpt>
      <trkpt lat="43.209222" lon="-5.089148">
        <ele>327.723</ele>
        <time>2022-01-27T13:30:34Z</time>
      </trkpt>
      <trkpt lat="43.209257" lon="-5.089092">
        <ele>328.959</ele>
        <time>2022-01-27T13:31:14Z</time>
      </trkpt>
      <trkpt lat="43.209290" lon="-5.089020">
        <ele>330.877</ele>
        <time>2022-01-27T13:31:54Z</time>
      </trkpt>
      <trkpt lat="43.209316" lon="-5.088930">
        <ele>333.665</ele>
        <time>2022-01-27T13:32:34Z</time>
      </trkpt>
      <trkpt lat="43.209351" lon="-5.088878">
        <ele>334.222</ele>
        <time>2022-01-27T13:33:14Z</time>
      </trkpt>
      <trkpt lat="43.209422" lon="-5.088870">
        <ele>330.975</ele>
        <time>2022-01-27T13:33:54Z</time>
      </trkpt>
      <trkpt lat="43.209453" lon="-5.088903">
        <ele>329.428</ele>
        <time>2022-01-27T13:34:34Z</time>
      </trkpt>
      <trkpt lat="43.209460" lon="-5.088977">
        <ele>327.220</ele>
        <time>2022-01-27T13:35:14Z</time>
      </trkpt>
      <trkpt lat="43.209475" lon="-5.089072">
        <ele>324.708</ele>
        <time>2022-01-27T13:35:54Z</time>
      </trkpt>
      <trkpt lat="43.209493" lon="-5.089201">
        <ele>320.336</ele>
        <time>2022-01-27T13:36:34Z</time>
      </trkpt>
      <trkpt lat="43.209541" lon="-5.089306">
        <ele>319.010</ele>
        <time>2022-01-27T13:37:14Z</time>
      </trkpt>
      <trkpt lat="43.209567" lon="-5.089374">
        <ele>317.534</ele>
        <time>2022-01-27T13:37:54Z</time>
      </trkpt>
      <trkpt lat="43.209654" lon="-5.089555">
        <ele>315.861</ele>
        <time>2022-01-27T13:38:34Z</time>
      </trkpt>
      <trkpt lat="43.209677" lon="-5.089621">
        <ele>314.647</ele>
        <time>2022-01-27T13:39:14Z</time>
      </trkpt>
      <trkpt lat="43.209657" lon="-5.089656">
        <ele>312.195</ele>
        <time>2022-01-27T13:39:54Z</time>
      </trkpt>
      <trkpt lat="43.209618" lon="-5.089613">
        <ele>311.453</ele>
        <time>2022-01-27T13:40:34Z</time>
      </trkpt>
      <trkpt lat="43.209593" lon="-5.089630">
        <ele>309.270</ele>
        <time>2022-01-27T13:41:14Z</time>
      </trkpt>
      <trkpt lat="43.209623" lon="-5.089703">
        <ele>308.351</ele>
        <time>2022-01-27T13:41:54Z</time>
      </trkpt>
      <trkpt lat="43.209658" lon="-5.089814">
        <ele>306.601</ele>
        <time>2022-01-27T13:42:34Z</time>
      </trkpt>
      <trkpt lat="43.209622" lon="-5.089822">
        <ele>304.411</ele>
        <time>2022-01-27T13:43:14Z</time>
      </trkpt>
      <trkpt lat="43.209544" lon="-5.089776">
        <ele>301.608</ele>
        <time>2022-01-27T13:43:54Z</time>
      </trkpt>
      <trkpt lat="43.209501" lon="-5.089744">
        <ele>300.364</ele>
        <time>2022-01-27T13:44:34Z</time>
      </trkpt>
      <trkpt lat="43.209455" lon="-5.089657">
        <ele>300.328</ele>
        <time>2022-01-27T13:45:14Z</time>
      </trkpt>
      <trkpt lat="43.209399" lon="-5.089629">
        <ele>302.572</ele>
        <time>2022-01-27T13:45:54Z</time>
      </trkpt>
      <trkpt lat="43.209424" lon="-5.089739">
        <ele>298.469</ele>
        <time>2022-01-27T13:46:34Z</time>
      </trkpt>
      <trkpt lat="43.209472" lon="-5.089905">
        <ele>293.695</ele>
        <time>2022-01-27T13:47:14Z</time>
      </trkpt>
      <trkpt lat="43.209508" lon="-5.090026">
        <ele>291.723</ele>
        <time>2022-01-27T13:47:54Z</time>
      </trkpt>
      <trkpt lat="43.209545" lon="-5.090142">
        <ele>290.441</ele>
        <time>2022-01-27T13:48:34Z</time>
      </trkpt>
      <trkpt lat="43.209557" lon="-5.090247">
        <ele>288.258</ele>
        <time>2022-01-27T13:49:14Z</time>
      </trkpt>
      <trkpt lat="43.209538" lon="-5.090327">
        <ele>283.983</ele>
        <time>2022-01-27T13:49:54Z</time>
      </trkpt>
      <trkpt lat="43.209569" lon="-5.090395">
        <ele>283.125</ele>
        <time>2022-01-27T13:50:34Z</time>
      </trkpt>
      <trkpt lat="43.209601" lon="-5.090453">
        <ele>283.117</ele>
        <time>2022-01-27T13:51:14Z</time>
      </trkpt>
      <trkpt lat="43.209636" lon="-5.090498">
        <ele>284.008</ele>
        <time>2022-01-27T13:51:54Z</time>
      </trkpt>
    </trkseg>
  </trk></gpx>